sensor_id;sensor_type;location;lat;lon;timestamp;temperature;humidity
40756;DHT22;26461;45.630;9.418;2023-09-12T00:02:08;25.80;57.80
40756;DHT22;26461;45.630;9.418;2023-09-12T00:05:19;25.80;58.40
40756;DHT22;26461;45.630;9.418;2023-09-12T00:08:24;25.80;57.80
40756;DHT22;26461;45.630;9.418;2023-09-12T00:11:34;25.80;57.70
40756;DHT22;26461;45.630;9.418;2023-09-12T00:14:44;25.80;57.70
40756;DHT22;26461;45.630;9.418;2023-09-12T00:17:54;25.80;57.80
40756;DHT22;26461;45.630;9.418;2023-09-12T00:21:04;25.80;57.70
40756;DHT22;26461;45.630;9.418;2023-09-12T00:24:09;25.80;57.70
40756;DHT22;26461;45.630;9.418;2023-09-12T00:27:19;25.80;57.80
40756;DHT22;26461;45.630;9.418;2023-09-12T00:30:29;25.70;58.00
40756;DHT22;26461;45.630;9.418;2023-09-12T00:33:35;25.60;57.90
40756;DHT22;26461;45.630;9.418;2023-09-12T00:36:45;25.60;58.00
40756;DHT22;26461;45.630;9.418;2023-09-12T00:39:50;25.60;58.10
40756;DHT22;26461;45.630;9.418;2023-09-12T00:43:00;25.60;58.20
40756;DHT22;26461;45.630;9.418;2023-09-12T00:46:10;25.60;58.20
40756;DHT22;26461;45.630;9.418;2023-09-12T00:49:20;25.60;58.20
40756;DHT22;26461;45.630;9.418;2023-09-12T00:52:33;25.50;58.80
40756;DHT22;26461;45.630;9.418;2023-09-12T00:55:44;25.50;58.30
40756;DHT22;26461;45.630;9.418;2023-09-12T00:58:50;25.50;58.30
40756;DHT22;26461;45.630;9.418;2023-09-12T01:02:02;25.50;58.30
40756;DHT22;26461;45.630;9.418;2023-09-12T01:05:08;25.50;58.40
40756;DHT22;26461;45.630;9.418;2023-09-12T01:08:13;25.40;58.40
40756;DHT22;26461;45.630;9.418;2023-09-12T01:11:19;25.40;58.60
40756;DHT22;26461;45.630;9.418;2023-09-12T01:14:24;25.40;58.70
40756;DHT22;26461;45.630;9.418;2023-09-12T01:17:29;25.40;58.90
40756;DHT22;26461;45.630;9.418;2023-09-12T01:20:43;25.40;58.90
40756;DHT22;26461;45.630;9.418;2023-09-12T01:30:28;25.40;59.10
40756;DHT22;26461;45.630;9.418;2023-09-12T01:33:36;25.40;59.30
40756;DHT22;26461;45.630;9.418;2023-09-12T01:36:40;25.30;59.30
40756;DHT22;26461;45.630;9.418;2023-09-12T01:39:46;25.30;59.40
40756;DHT22;26461;45.630;9.418;2023-09-12T01:42:52;25.30;59.50
40756;DHT22;26461;45.630;9.418;2023-09-12T01:46:02;25.30;59.60
40756;DHT22;26461;45.630;9.418;2023-09-12T01:49:09;25.20;59.60
40756;DHT22;26461;45.630;9.418;2023-09-12T01:52:15;25.20;59.60
40756;DHT22;26461;45.630;9.418;2023-09-12T01:55:20;25.20;59.70
40756;DHT22;26461;45.630;9.418;2023-09-12T01:58:26;25.30;59.90
40756;DHT22;26461;45.630;9.418;2023-09-12T02:01:36;25.30;59.70
40756;DHT22;26461;45.630;9.418;2023-09-12T02:04:45;25.30;59.60
40756;DHT22;26461;45.630;9.418;2023-09-12T02:07:52;25.40;59.60
40756;DHT22;26461;45.630;9.418;2023-09-12T02:11:02;25.50;59.50
40756;DHT22;26461;45.630;9.418;2023-09-12T02:14:08;25.50;59.30
40756;DHT22;26461;45.630;9.418;2023-09-12T02:17:18;25.50;59.30
40756;DHT22;26461;45.630;9.418;2023-09-12T02:20:28;25.50;59.20
40756;DHT22;26461;45.630;9.418;2023-09-12T02:23:38;25.50;59.30
40756;DHT22;26461;45.630;9.418;2023-09-12T02:26:43;25.50;59.40
40756;DHT22;26461;45.630;9.418;2023-09-12T02:29:54;25.40;59.50
40756;DHT22;26461;45.630;9.418;2023-09-12T02:33:00;25.40;59.60
40756;DHT22;26461;45.630;9.418;2023-09-12T02:36:10;25.40;59.70
40756;DHT22;26461;45.630;9.418;2023-09-12T02:39:20;25.30;59.80
40756;DHT22;26461;45.630;9.418;2023-09-12T02:42:30;25.30;59.80
40756;DHT22;26461;45.630;9.418;2023-09-12T02:45:40;25.30;59.80
40756;DHT22;26461;45.630;9.418;2023-09-12T02:48:45;25.30;59.90
40756;DHT22;26461;45.630;9.418;2023-09-12T02:51:56;25.30;59.90
40756;DHT22;26461;45.630;9.418;2023-09-12T02:55:06;25.30;60.00
40756;DHT22;26461;45.630;9.418;2023-09-12T02:58:16;25.30;60.00
40756;DHT22;26461;45.630;9.418;2023-09-12T03:01:21;25.30;60.00
40756;DHT22;26461;45.630;9.418;2023-09-12T03:04:35;25.20;60.90
40756;DHT22;26461;45.630;9.418;2023-09-12T03:07:40;25.20;60.10
40756;DHT22;26461;45.630;9.418;2023-09-12T03:10:57;25.20;60.20
40756;DHT22;26461;45.630;9.418;2023-09-12T03:14:07;25.20;60.40
40756;DHT22;26461;45.630;9.418;2023-09-12T03:17:17;25.10;60.10
40756;DHT22;26461;45.630;9.418;2023-09-12T03:20:29;25.10;59.90
40756;DHT22;26461;45.630;9.418;2023-09-12T03:23:39;25.00;60.40
40756;DHT22;26461;45.630;9.418;2023-09-12T03:26:44;24.90;60.60
40756;DHT22;26461;45.630;9.418;2023-09-12T03:29:55;24.90;60.90
40756;DHT22;26461;45.630;9.418;2023-09-12T03:33:00;24.90;61.20
40756;DHT22;26461;45.630;9.418;2023-09-12T03:36:11;24.80;61.30
40756;DHT22;26461;45.630;9.418;2023-09-12T03:39:23;24.80;61.60
40756;DHT22;26461;45.630;9.418;2023-09-12T03:42:32;24.80;61.90
40756;DHT22;26461;45.630;9.418;2023-09-12T03:45:37;24.70;62.00
40756;DHT22;26461;45.630;9.418;2023-09-12T03:48:42;24.70;62.20
40756;DHT22;26461;45.630;9.418;2023-09-12T03:51:53;24.60;62.20
40756;DHT22;26461;45.630;9.418;2023-09-12T03:54:58;24.60;62.30
40756;DHT22;26461;45.630;9.418;2023-09-12T03:58:10;24.60;62.30
40756;DHT22;26461;45.630;9.418;2023-09-12T04:01:15;24.60;62.30
40756;DHT22;26461;45.630;9.418;2023-09-12T04:04:25;24.60;62.30
40756;DHT22;26461;45.630;9.418;2023-09-12T04:07:30;24.60;62.20
40756;DHT22;26461;45.630;9.418;2023-09-12T04:10:35;24.50;61.90
40756;DHT22;26461;45.630;9.418;2023-09-12T04:13:45;24.50;61.90
40756;DHT22;26461;45.630;9.418;2023-09-12T04:16:50;24.50;61.90
40756;DHT22;26461;45.630;9.418;2023-09-12T04:20:00;24.50;61.80
40756;DHT22;26461;45.630;9.418;2023-09-12T04:23:10;24.50;61.70
40756;DHT22;26461;45.630;9.418;2023-09-12T04:26:15;24.50;61.70
40756;DHT22;26461;45.630;9.418;2023-09-12T04:29:20;24.40;61.30
40756;DHT22;26461;45.630;9.418;2023-09-12T04:32:26;24.40;61.10
40756;DHT22;26461;45.630;9.418;2023-09-12T04:35:36;24.30;61.10
40756;DHT22;26461;45.630;9.418;2023-09-12T04:38:47;24.30;61.40
40756;DHT22;26461;45.630;9.418;2023-09-12T04:42:10;24.30;61.80
40756;DHT22;26461;45.630;9.418;2023-09-12T04:45:20;24.30;61.80
40756;DHT22;26461;45.630;9.418;2023-09-12T04:48:30;24.30;61.80
40756;DHT22;26461;45.630;9.418;2023-09-12T04:51:40;24.20;61.60
40756;DHT22;26461;45.630;9.418;2023-09-12T04:54:52;24.20;61.40
40756;DHT22;26461;45.630;9.418;2023-09-12T04:58:03;24.10;61.30
40756;DHT22;26461;45.630;9.418;2023-09-12T05:01:08;24.10;61.40
40756;DHT22;26461;45.630;9.418;2023-09-12T05:04:19;24.00;61.70
40756;DHT22;26461;45.630;9.418;2023-09-12T05:07:24;24.00;62.00
40756;DHT22;26461;45.630;9.418;2023-09-12T05:10:31;24.00;62.10
40756;DHT22;26461;45.630;9.418;2023-09-12T05:13:36;24.00;63.00
40756;DHT22;26461;45.630;9.418;2023-09-12T05:16:41;24.00;61.80
40756;DHT22;26461;45.630;9.418;2023-09-12T05:19:52;24.00;62.00
40756;DHT22;26461;45.630;9.418;2023-09-12T05:23:02;23.90;62.20
40756;DHT22;26461;45.630;9.418;2023-09-12T05:26:12;23.90;62.50
40756;DHT22;26461;45.630;9.418;2023-09-12T05:29:22;23.90;62.80
40756;DHT22;26461;45.630;9.418;2023-09-12T05:32:32;24.00;63.00
40756;DHT22;26461;45.630;9.418;2023-09-12T05:35:42;24.00;63.00
40756;DHT22;26461;45.630;9.418;2023-09-12T05:38:54;23.90;63.20
40756;DHT22;26461;45.630;9.418;2023-09-12T05:41:59;24.00;64.20
40756;DHT22;26461;45.630;9.418;2023-09-12T05:45:09;24.00;63.50
40756;DHT22;26461;45.630;9.418;2023-09-12T05:48:19;24.00;63.40
40756;DHT22;26461;45.630;9.418;2023-09-12T05:51:29;24.10;63.50
40756;DHT22;26461;45.630;9.418;2023-09-12T05:54:40;24.10;63.60
40756;DHT22;26461;45.630;9.418;2023-09-12T05:57:51;24.10;63.70
40756;DHT22;26461;45.630;9.418;2023-09-12T06:01:02;24.20;63.90
40756;DHT22;26461;45.630;9.418;2023-09-12T06:04:12;24.20;63.80
40756;DHT22;26461;45.630;9.418;2023-09-12T06:07:17;24.30;63.90
40756;DHT22;26461;45.630;9.418;2023-09-12T06:10:22;24.20;64.00
40756;DHT22;26461;45.630;9.418;2023-09-12T06:13:32;24.30;64.00
40756;DHT22;26461;45.630;9.418;2023-09-12T06:16:42;24.30;64.00
40756;DHT22;26461;45.630;9.418;2023-09-12T06:19:47;24.30;64.00
40756;DHT22;26461;45.630;9.418;2023-09-12T06:22:54;24.30;64.10
40756;DHT22;26461;45.630;9.418;2023-09-12T06:25:58;24.30;64.20
40756;DHT22;26461;45.630;9.418;2023-09-12T06:29:09;24.30;64.30
40756;DHT22;26461;45.630;9.418;2023-09-12T06:32:18;24.30;64.60
40756;DHT22;26461;45.630;9.418;2023-09-12T06:35:23;24.30;64.60
40756;DHT22;26461;45.630;9.418;2023-09-12T06:38:33;24.30;64.90
40756;DHT22;26461;45.630;9.418;2023-09-12T06:41:43;24.30;65.20
40756;DHT22;26461;45.630;9.418;2023-09-12T06:44:48;24.30;65.20
40756;DHT22;26461;45.630;9.418;2023-09-12T06:47:53;24.30;65.60
40756;DHT22;26461;45.630;9.418;2023-09-12T06:51:08;24.30;65.90
40756;DHT22;26461;45.630;9.418;2023-09-12T06:54:13;24.40;65.70
40756;DHT22;26461;45.630;9.418;2023-09-12T06:57:19;24.40;66.00
40756;DHT22;26461;45.630;9.418;2023-09-12T07:00:24;24.40;66.30
40756;DHT22;26461;45.630;9.418;2023-09-12T07:03:32;24.50;65.70
40756;DHT22;26461;45.630;9.418;2023-09-12T07:06:42;24.60;65.40
40756;DHT22;26461;45.630;9.418;2023-09-12T07:09:52;24.60;65.20
40756;DHT22;26461;45.630;9.418;2023-09-12T07:12:57;24.70;65.40
40756;DHT22;26461;45.630;9.418;2023-09-12T07:16:07;24.70;65.20
40756;DHT22;26461;45.630;9.418;2023-09-12T07:19:17;24.70;65.30
40756;DHT22;26461;45.630;9.418;2023-09-12T07:22:22;24.70;65.10
40756;DHT22;26461;45.630;9.418;2023-09-12T07:25:27;24.80;65.20
40756;DHT22;26461;45.630;9.418;2023-09-12T07:28:37;24.80;65.20
40756;DHT22;26461;45.630;9.418;2023-09-12T07:31:47;24.90;64.50
40756;DHT22;26461;45.630;9.418;2023-09-12T07:34:52;24.90;64.10
40756;DHT22;26461;45.630;9.418;2023-09-12T07:38:02;24.90;64.00
40756;DHT22;26461;45.630;9.418;2023-09-12T07:41:12;24.90;63.70
40756;DHT22;26461;45.630;9.418;2023-09-12T07:44:22;25.00;63.50
40756;DHT22;26461;45.630;9.418;2023-09-12T07:47:27;25.00;63.00
40756;DHT22;26461;45.630;9.418;2023-09-12T07:50:32;25.10;62.70
40756;DHT22;26461;45.630;9.418;2023-09-12T07:53:37;25.10;62.70
40756;DHT22;26461;45.630;9.418;2023-09-12T07:56:47;25.20;62.70
40756;DHT22;26461;45.630;9.418;2023-09-12T07:59:52;25.20;62.40
40756;DHT22;26461;45.630;9.418;2023-09-12T08:03:02;25.30;62.30
40756;DHT22;26461;45.630;9.418;2023-09-12T08:06:06;25.30;62.50
40756;DHT22;26461;45.630;9.418;2023-09-12T08:09:17;25.40;62.30
40756;DHT22;26461;45.630;9.418;2023-09-12T08:12:27;25.40;62.20
40756;DHT22;26461;45.630;9.418;2023-09-12T08:15:38;25.50;61.90
40756;DHT22;26461;45.630;9.418;2023-09-12T08:18:42;25.50;61.50
40756;DHT22;26461;45.630;9.418;2023-09-12T08:21:48;25.50;61.20
40756;DHT22;26461;45.630;9.418;2023-09-12T08:24:58;25.60;61.10
40756;DHT22;26461;45.630;9.418;2023-09-12T08:28:08;25.60;61.20
40756;DHT22;26461;45.630;9.418;2023-09-12T08:33:25;25.60;60.30
40756;DHT22;26461;45.630;9.418;2023-09-12T08:36:35;25.60;60.60
40756;DHT22;26461;45.630;9.418;2023-09-12T08:39:45;25.60;60.10
40756;DHT22;26461;45.630;9.418;2023-09-12T08:42:57;25.70;59.40
40756;DHT22;26461;45.630;9.418;2023-09-12T08:46:07;25.70;59.40
40756;DHT22;26461;45.630;9.418;2023-09-12T08:49:18;25.70;59.40
40756;DHT22;26461;45.630;9.418;2023-09-12T08:52:28;25.80;59.40
40756;DHT22;26461;45.630;9.418;2023-09-12T08:55:34;25.80;59.00
40756;DHT22;26461;45.630;9.418;2023-09-12T08:58:47;25.80;58.90
40756;DHT22;26461;45.630;9.418;2023-09-12T09:01:58;25.90;58.90
40756;DHT22;26461;45.630;9.418;2023-09-12T09:05:10;25.90;58.70
40756;DHT22;26461;45.630;9.418;2023-09-12T09:08:21;26.00;58.50
40756;DHT22;26461;45.630;9.418;2023-09-12T09:11:32;26.00;58.40
40756;DHT22;26461;45.630;9.418;2023-09-12T09:14:42;26.00;58.10
40756;DHT22;26461;45.630;9.418;2023-09-12T09:18:02;26.10;58.10
40756;DHT22;26461;45.630;9.418;2023-09-12T09:21:18;26.10;58.20
40756;DHT22;26461;45.630;9.418;2023-09-12T09:24:29;26.10;58.20
40756;DHT22;26461;45.630;9.418;2023-09-12T09:27:39;26.10;58.20
40756;DHT22;26461;45.630;9.418;2023-09-12T09:30:50;26.20;57.90
40756;DHT22;26461;45.630;9.418;2023-09-12T09:34:01;26.20;57.70
40756;DHT22;26461;45.630;9.418;2023-09-12T09:37:11;26.20;57.90
40756;DHT22;26461;45.630;9.418;2023-09-12T09:40:22;26.30;57.50
40756;DHT22;26461;45.630;9.418;2023-09-12T09:43:33;26.30;56.80
40756;DHT22;26461;45.630;9.418;2023-09-12T09:46:44;26.20;57.00
40756;DHT22;26461;45.630;9.418;2023-09-12T09:49:57;26.20;57.30
40756;DHT22;26461;45.630;9.418;2023-09-12T09:53:08;26.30;57.50
40756;DHT22;26461;45.630;9.418;2023-09-12T09:56:19;26.30;57.40
40756;DHT22;26461;45.630;9.418;2023-09-12T09:59:29;26.40;57.60
40756;DHT22;26461;45.630;9.418;2023-09-12T10:02:40;26.40;57.70
40756;DHT22;26461;45.630;9.418;2023-09-12T10:05:53;26.50;58.00
40756;DHT22;26461;45.630;9.418;2023-09-12T10:09:09;26.50;57.40
40756;DHT22;26461;45.630;9.418;2023-09-12T10:12:20;26.50;57.10
40756;DHT22;26461;45.630;9.418;2023-09-12T10:15:42;26.50;57.10
40756;DHT22;26461;45.630;9.418;2023-09-12T10:25:17;26.50;57.30
40756;DHT22;26461;45.630;9.418;2023-09-12T10:28:27;26.50;57.00
40756;DHT22;26461;45.630;9.418;2023-09-12T10:31:38;26.60;56.80
40756;DHT22;26461;45.630;9.418;2023-09-12T10:34:49;26.60;56.70
40756;DHT22;26461;45.630;9.418;2023-09-12T10:38:00;26.60;56.80
40756;DHT22;26461;45.630;9.418;2023-09-12T10:41:14;26.60;56.90
40756;DHT22;26461;45.630;9.418;2023-09-12T10:44:25;26.60;56.40
40756;DHT22;26461;45.630;9.418;2023-09-12T10:47:36;26.60;56.90
40756;DHT22;26461;45.630;9.418;2023-09-12T10:50:46;26.60;56.20
40756;DHT22;26461;45.630;9.418;2023-09-12T10:53:57;26.60;56.50
40756;DHT22;26461;45.630;9.418;2023-09-12T10:57:09;26.70;56.40
40756;DHT22;26461;45.630;9.418;2023-09-12T11:00:16;26.70;56.60
40756;DHT22;26461;45.630;9.418;2023-09-12T11:06:36;26.70;55.30
40756;DHT22;26461;45.630;9.418;2023-09-12T11:13:38;26.70;54.40
40756;DHT22;26461;45.630;9.418;2023-09-12T11:17:20;26.80;54.10
40756;DHT22;26461;45.630;9.418;2023-09-12T11:21:00;26.80;53.90
40756;DHT22;26461;45.630;9.418;2023-09-12T11:24:14;26.80;54.20
40756;DHT22;26461;45.630;9.418;2023-09-12T11:27:30;26.90;54.50
40756;DHT22;26461;45.630;9.418;2023-09-12T11:30:56;26.90;54.20
40756;DHT22;26461;45.630;9.418;2023-09-12T11:34:10;27.00;54.10
40756;DHT22;26461;45.630;9.418;2023-09-12T11:37:25;27.00;53.20
40756;DHT22;26461;45.630;9.418;2023-09-12T11:43:46;27.10;51.20
40756;DHT22;26461;45.630;9.418;2023-09-12T11:47:02;27.10;51.70
40756;DHT22;26461;45.630;9.418;2023-09-12T11:50:49;27.10;52.00
40756;DHT22;26461;45.630;9.418;2023-09-12T11:53:59;27.20;51.90
40756;DHT22;26461;45.630;9.418;2023-09-12T11:57:17;27.20;51.00
40756;DHT22;26461;45.630;9.418;2023-09-12T12:00:32;27.20;50.70
40756;DHT22;26461;45.630;9.418;2023-09-12T12:03:45;27.30;50.70
40756;DHT22;26461;45.630;9.418;2023-09-12T12:07:02;27.30;50.10
40756;DHT22;26461;45.630;9.418;2023-09-12T12:10:17;27.30;50.50
40756;DHT22;26461;45.630;9.418;2023-09-12T12:13:36;27.40;51.10
40756;DHT22;26461;45.630;9.418;2023-09-12T12:16:46;27.40;51.70
40756;DHT22;26461;45.630;9.418;2023-09-12T12:19:57;27.50;50.30
40756;DHT22;26461;45.630;9.418;2023-09-12T12:23:12;27.50;49.20
40756;DHT22;26461;45.630;9.418;2023-09-12T12:26:24;27.60;49.50
40756;DHT22;26461;45.630;9.418;2023-09-12T12:29:31;27.60;49.70
40756;DHT22;26461;45.630;9.418;2023-09-12T12:32:46;27.60;48.70
40756;DHT22;26461;45.630;9.418;2023-09-12T12:36:01;27.60;48.00
40756;DHT22;26461;45.630;9.418;2023-09-12T12:39:12;27.60;49.30
40756;DHT22;26461;45.630;9.418;2023-09-12T12:42:23;27.70;48.70
40756;DHT22;26461;45.630;9.418;2023-09-12T12:45:35;27.80;48.20
40756;DHT22;26461;45.630;9.418;2023-09-12T12:48:46;27.80;47.80
40756;DHT22;26461;45.630;9.418;2023-09-12T12:51:56;27.90;47.70
40756;DHT22;26461;45.630;9.418;2023-09-12T12:55:10;27.90;47.30
40756;DHT22;26461;45.630;9.418;2023-09-12T12:58:20;28.00;47.20
40756;DHT22;26461;45.630;9.418;2023-09-12T13:01:30;28.00;47.20
40756;DHT22;26461;45.630;9.418;2023-09-12T13:04:41;28.10;46.90
40756;DHT22;26461;45.630;9.418;2023-09-12T13:07:52;28.20;46.70
40756;DHT22;26461;45.630;9.418;2023-09-12T13:11:01;28.20;46.80
40756;DHT22;26461;45.630;9.418;2023-09-12T13:14:12;28.30;46.10
40756;DHT22;26461;45.630;9.418;2023-09-12T13:17:23;28.30;46.00
40756;DHT22;26461;45.630;9.418;2023-09-12T13:20:34;28.30;45.80
40756;DHT22;26461;45.630;9.418;2023-09-12T13:23:39;28.30;45.80
40756;DHT22;26461;45.630;9.418;2023-09-12T13:26:53;28.40;45.30
40756;DHT22;26461;45.630;9.418;2023-09-12T13:30:04;28.40;45.60
40756;DHT22;26461;45.630;9.418;2023-09-12T13:33:15;28.40;45.50
40756;DHT22;26461;45.630;9.418;2023-09-12T13:36:26;28.40;45.60
40756;DHT22;26461;45.630;9.418;2023-09-12T13:39:31;28.40;45.70
40756;DHT22;26461;45.630;9.418;2023-09-12T13:42:35;28.40;45.40
40756;DHT22;26461;45.630;9.418;2023-09-12T13:45:45;28.40;45.40
40756;DHT22;26461;45.630;9.418;2023-09-12T13:48:50;28.40;45.20
40756;DHT22;26461;45.630;9.418;2023-09-12T13:52:00;28.40;45.20
40756;DHT22;26461;45.630;9.418;2023-09-12T13:55:10;28.40;44.70
40756;DHT22;26461;45.630;9.418;2023-09-12T13:58:23;28.50;44.50
40756;DHT22;26461;45.630;9.418;2023-09-12T14:01:34;28.60;44.70
40756;DHT22;26461;45.630;9.418;2023-09-12T14:04:43;28.70;44.70
40756;DHT22;26461;45.630;9.418;2023-09-12T14:07:48;28.80;44.30
40756;DHT22;26461;45.630;9.418;2023-09-12T14:10:58;28.80;44.10
40756;DHT22;26461;45.630;9.418;2023-09-12T14:14:04;28.90;43.90
40756;DHT22;26461;45.630;9.418;2023-09-12T14:17:09;28.90;44.90
40756;DHT22;26461;45.630;9.418;2023-09-12T14:20:19;29.00;45.70
40756;DHT22;26461;45.630;9.418;2023-09-12T14:23:29;29.10;45.40
40756;DHT22;26461;45.630;9.418;2023-09-12T14:26:34;29.00;46.50
40756;DHT22;26461;45.630;9.418;2023-09-12T14:29:45;29.00;44.70
40756;DHT22;26461;45.630;9.418;2023-09-12T14:32:58;28.90;45.40
40756;DHT22;26461;45.630;9.418;2023-09-12T14:36:09;28.80;46.20
40756;DHT22;26461;45.630;9.418;2023-09-12T14:39:15;28.70;46.20
40756;DHT22;26461;45.630;9.418;2023-09-12T14:42:25;28.70;44.80
40756;DHT22;26461;45.630;9.418;2023-09-12T14:45:32;28.70;46.10
40756;DHT22;26461;45.630;9.418;2023-09-12T14:48:42;28.70;46.20
40756;DHT22;26461;45.630;9.418;2023-09-12T14:51:54;28.70;45.70
40756;DHT22;26461;45.630;9.418;2023-09-12T14:55:05;28.80;46.40
40756;DHT22;26461;45.630;9.418;2023-09-12T14:58:12;28.80;46.20
40756;DHT22;26461;45.630;9.418;2023-09-12T15:01:21;28.90;44.40
40756;DHT22;26461;45.630;9.418;2023-09-12T15:04:34;28.90;44.50
40756;DHT22;26461;45.630;9.418;2023-09-12T15:07:44;29.00;44.20
40756;DHT22;26461;45.630;9.418;2023-09-12T15:11:00;29.00;44.70
40756;DHT22;26461;45.630;9.418;2023-09-12T15:14:11;29.00;44.30
40756;DHT22;26461;45.630;9.418;2023-09-12T15:17:21;29.00;44.30
40756;DHT22;26461;45.630;9.418;2023-09-12T15:20:32;29.10;44.80
40756;DHT22;26461;45.630;9.418;2023-09-12T15:23:42;29.20;43.10
40756;DHT22;26461;45.630;9.418;2023-09-12T15:26:52;29.30;42.80
40756;DHT22;26461;45.630;9.418;2023-09-12T15:30:03;29.30;42.60
40756;DHT22;26461;45.630;9.418;2023-09-12T15:33:15;29.50;42.70
40756;DHT22;26461;45.630;9.418;2023-09-12T15:36:25;29.50;42.50
40756;DHT22;26461;45.630;9.418;2023-09-12T15:39:36;29.70;42.30
40756;DHT22;26461;45.630;9.418;2023-09-12T15:42:46;29.80;41.70
40756;DHT22;26461;45.630;9.418;2023-09-12T15:45:57;29.80;41.30
40756;DHT22;26461;45.630;9.418;2023-09-12T15:49:03;30.00;41.20
40756;DHT22;26461;45.630;9.418;2023-09-12T15:52:13;30.00;41.20
40756;DHT22;26461;45.630;9.418;2023-09-12T15:55:23;30.10;40.80
40756;DHT22;26461;45.630;9.418;2023-09-12T15:58:34;30.20;40.90
40756;DHT22;26461;45.630;9.418;2023-09-12T16:01:45;30.20;40.30
40756;DHT22;26461;45.630;9.418;2023-09-12T16:04:50;30.30;40.00
40756;DHT22;26461;45.630;9.418;2023-09-12T16:08:01;30.30;40.00
40756;DHT22;26461;45.630;9.418;2023-09-12T16:11:11;30.30;39.90
40756;DHT22;26461;45.630;9.418;2023-09-12T16:14:21;30.30;40.00
40756;DHT22;26461;45.630;9.418;2023-09-12T16:17:31;30.20;40.00
40756;DHT22;26461;45.630;9.418;2023-09-12T16:20:42;30.20;40.10
40756;DHT22;26461;45.630;9.418;2023-09-12T16:23:54;30.10;40.00
40756;DHT22;26461;45.630;9.418;2023-09-12T16:26:59;30.00;39.90
40756;DHT22;26461;45.630;9.418;2023-09-12T16:30:11;29.90;40.00
40756;DHT22;26461;45.630;9.418;2023-09-12T16:33:21;29.90;40.30
40756;DHT22;26461;45.630;9.418;2023-09-12T16:36:27;29.80;40.90
40756;DHT22;26461;45.630;9.418;2023-09-12T16:39:32;29.80;40.30
40756;DHT22;26461;45.630;9.418;2023-09-12T16:42:45;29.80;39.80
40756;DHT22;26461;45.630;9.418;2023-09-12T16:45:55;29.70;40.10
40756;DHT22;26461;45.630;9.418;2023-09-12T16:49:06;29.70;39.40
40756;DHT22;26461;45.630;9.418;2023-09-12T16:52:16;29.70;39.60
40756;DHT22;26461;45.630;9.418;2023-09-12T16:55:21;29.60;39.70
40756;DHT22;26461;45.630;9.418;2023-09-12T16:58:26;29.60;39.90
40756;DHT22;26461;45.630;9.418;2023-09-12T17:01:37;29.50;40.00
40756;DHT22;26461;45.630;9.418;2023-09-12T17:04:47;29.50;40.50
40756;DHT22;26461;45.630;9.418;2023-09-12T17:07:58;29.50;40.20
40756;DHT22;26461;45.630;9.418;2023-09-12T17:11:08;29.40;40.30
40756;DHT22;26461;45.630;9.418;2023-09-12T17:14:18;29.40;40.50
40756;DHT22;26461;45.630;9.418;2023-09-12T17:17:28;29.30;40.70
40756;DHT22;26461;45.630;9.418;2023-09-12T17:20:33;29.30;40.70
40756;DHT22;26461;45.630;9.418;2023-09-12T17:23:44;29.20;40.80
40756;DHT22;26461;45.630;9.418;2023-09-12T17:26:54;29.20;41.50
40756;DHT22;26461;45.630;9.418;2023-09-12T17:30:07;29.10;41.60
40756;DHT22;26461;45.630;9.418;2023-09-12T17:33:18;29.10;41.80
40756;DHT22;26461;45.630;9.418;2023-09-12T17:36:28;29.00;42.00
40756;DHT22;26461;45.630;9.418;2023-09-12T17:39:38;29.00;42.10
40756;DHT22;26461;45.630;9.418;2023-09-12T17:42:49;28.90;42.40
40756;DHT22;26461;45.630;9.418;2023-09-12T17:46:00;28.90;42.50
40756;DHT22;26461;45.630;9.418;2023-09-12T17:49:05;28.80;42.60
40756;DHT22;26461;45.630;9.418;2023-09-12T17:52:15;28.80;42.80
40756;DHT22;26461;45.630;9.418;2023-09-12T17:55:26;28.70;42.90
40756;DHT22;26461;45.630;9.418;2023-09-12T17:58:38;28.70;43.30
40756;DHT22;26461;45.630;9.418;2023-09-12T18:01:52;28.70;43.60
40756;DHT22;26461;45.630;9.418;2023-09-12T18:05:07;28.60;43.90
40756;DHT22;26461;45.630;9.418;2023-09-12T18:08:18;28.60;44.10
40756;DHT22;26461;45.630;9.418;2023-09-12T18:11:29;28.60;44.30
40756;DHT22;26461;45.630;9.418;2023-09-12T18:14:39;28.60;44.40
40756;DHT22;26461;45.630;9.418;2023-09-12T18:17:52;28.60;44.70
40756;DHT22;26461;45.630;9.418;2023-09-12T18:21:05;28.50;44.80
40756;DHT22;26461;45.630;9.418;2023-09-12T18:24:22;28.50;44.90
40756;DHT22;26461;45.630;9.418;2023-09-12T18:27:40;28.40;45.00
40756;DHT22;26461;45.630;9.418;2023-09-12T18:30:48;28.40;45.50
40756;DHT22;26461;45.630;9.418;2023-09-12T18:33:58;28.40;46.10
40756;DHT22;26461;45.630;9.418;2023-09-12T18:37:06;28.30;46.30
40756;DHT22;26461;45.630;9.418;2023-09-12T18:40:19;28.20;46.60
40756;DHT22;26461;45.630;9.418;2023-09-12T18:43:33;28.20;46.60
40756;DHT22;26461;45.630;9.418;2023-09-12T18:46:44;28.10;46.40
40756;DHT22;26461;45.630;9.418;2023-09-12T18:50:01;28.10;46.30
40756;DHT22;26461;45.630;9.418;2023-09-12T18:53:17;28.00;46.30
40756;DHT22;26461;45.630;9.418;2023-09-12T18:56:22;28.00;46.40
40756;DHT22;26461;45.630;9.418;2023-09-12T18:59:35;28.00;46.70
40756;DHT22;26461;45.630;9.418;2023-09-12T19:02:46;28.00;47.10
40756;DHT22;26461;45.630;9.418;2023-09-12T19:05:56;27.90;47.40
40756;DHT22;26461;45.630;9.418;2023-09-12T19:09:10;27.90;47.80
40756;DHT22;26461;45.630;9.418;2023-09-12T19:12:23;27.90;48.20
40756;DHT22;26461;45.630;9.418;2023-09-12T19:15:33;27.80;48.20
40756;DHT22;26461;45.630;9.418;2023-09-12T19:18:43;27.70;47.90
40756;DHT22;26461;45.630;9.418;2023-09-12T19:22:01;27.60;47.50
40756;DHT22;26461;45.630;9.418;2023-09-12T19:25:16;27.60;47.80
40756;DHT22;26461;45.630;9.418;2023-09-12T19:28:31;27.60;47.60
40756;DHT22;26461;45.630;9.418;2023-09-12T19:31:55;27.60;48.50
40756;DHT22;26461;45.630;9.418;2023-09-12T19:35:13;27.50;49.00
40756;DHT22;26461;45.630;9.418;2023-09-12T19:38:29;27.40;48.90
40756;DHT22;26461;45.630;9.418;2023-09-12T19:41:45;27.40;48.80
40756;DHT22;26461;45.630;9.418;2023-09-12T19:45:00;27.30;48.70
40756;DHT22;26461;45.630;9.418;2023-09-12T19:48:18;27.30;48.80
40756;DHT22;26461;45.630;9.418;2023-09-12T19:51:34;27.30;49.00
40756;DHT22;26461;45.630;9.418;2023-09-12T19:54:46;27.20;48.70
40756;DHT22;26461;45.630;9.418;2023-09-12T19:58:00;27.20;48.30
40756;DHT22;26461;45.630;9.418;2023-09-12T20:01:10;27.10;48.20
40756;DHT22;26461;45.630;9.418;2023-09-12T20:04:33;27.00;47.90
40756;DHT22;26461;45.630;9.418;2023-09-12T20:07:50;27.00;47.70
40756;DHT22;26461;45.630;9.418;2023-09-12T20:11:06;27.00;47.50
40756;DHT22;26461;45.630;9.418;2023-09-12T20:14:16;27.00;47.20
40756;DHT22;26461;45.630;9.418;2023-09-12T20:17:30;26.90;47.20
40756;DHT22;26461;45.630;9.418;2023-09-12T20:20:44;26.90;47.30
40756;DHT22;26461;45.630;9.418;2023-09-12T20:23:57;26.90;47.50
40756;DHT22;26461;45.630;9.418;2023-09-12T20:27:09;26.90;48.30